Aviation Digital Data Service (ADDS)

Output produced by METARs form (0748 UTC 18 January 2018)
found at http://aviationweather.gov/adds/metars/
 
KBVI 180520Z 1806/1906 24005KT P6SM SCT015 
     FM181600 23008G18KT P6SM SKC 
     FM190000 23009KT P6SM SKC AMD NOT SKED